sensor_id;sensor_type;location;lat;lon;timestamp;P1;durP1;ratioP1;P2;durP2;ratioP2
50779;SDS011;36748;37.428;-121.972;2023-07-02T00:01:55;12.20;;;3.13;;
50779;SDS011;36748;37.428;-121.972;2023-07-02T00:04:21;7.78;;;3.15;;
50779;SDS011;36748;37.428;-121.972;2023-07-02T00:06:48;7.20;;;2.88;;
50779;SDS011;36748;37.428;-121.972;2023-07-02T00:09:15;8.52;;;3.13;;
50779;SDS011;36748;37.428;-121.972;2023-07-02T00:11:42;6.15;;;2.95;;
50779;SDS011;36748;37.428;-121.972;2023-07-02T00:14:10;8.70;;;3.10;;
50779;SDS011;36748;37.428;-121.972;2023-07-02T00:16:41;9.45;;;3.58;;
50779;SDS011;36748;37.428;-121.972;2023-07-02T00:19:14;6.77;;;3.17;;
50779;SDS011;36748;37.428;-121.972;2023-07-02T00:21:40;10.30;;;2.90;;
50779;SDS011;36748;37.428;-121.972;2023-07-02T00:24:07;4.97;;;2.55;;
50779;SDS011;36748;37.428;-121.972;2023-07-02T00:26:37;11.68;;;3.00;;
50779;SDS011;36748;37.428;-121.972;2023-07-02T00:29:05;8.68;;;3.00;;
50779;SDS011;36748;37.428;-121.972;2023-07-02T00:31:32;6.68;;;3.20;;
50779;SDS011;36748;37.428;-121.972;2023-07-02T00:33:59;7.75;;;3.10;;
50779;SDS011;36748;37.428;-121.972;2023-07-02T00:36:29;7.03;;;3.33;;
50779;SDS011;36748;37.428;-121.972;2023-07-02T00:38:55;7.57;;;2.83;;
50779;SDS011;36748;37.428;-121.972;2023-07-02T00:41:22;6.38;;;3.05;;
50779;SDS011;36748;37.428;-121.972;2023-07-02T00:43:48;5.80;;;2.88;;
50779;SDS011;36748;37.428;-121.972;2023-07-02T00:46:19;4.80;;;2.63;;
50779;SDS011;36748;37.428;-121.972;2023-07-02T00:48:47;7.97;;;2.92;;
50779;SDS011;36748;37.428;-121.972;2023-07-02T00:51:14;5.60;;;2.80;;
50779;SDS011;36748;37.428;-121.972;2023-07-02T00:53:45;5.93;;;2.80;;
50779;SDS011;36748;37.428;-121.972;2023-07-02T00:56:13;4.25;;;2.63;;
50779;SDS011;36748;37.428;-121.972;2023-07-02T00:58:43;7.50;;;3.08;;
50779;SDS011;36748;37.428;-121.972;2023-07-02T01:01:20;5.60;;;2.88;;
50779;SDS011;36748;37.428;-121.972;2023-07-02T01:03:51;4.90;;;2.90;;
50779;SDS011;36748;37.428;-121.972;2023-07-02T01:06:31;3.90;;;2.88;;
50779;SDS011;36748;37.428;-121.972;2023-07-02T01:08:59;6.85;;;2.80;;
50779;SDS011;36748;37.428;-121.972;2023-07-02T01:11:30;4.40;;;2.75;;
50779;SDS011;36748;37.428;-121.972;2023-07-02T01:14:02;4.85;;;3.05;;
50779;SDS011;36748;37.428;-121.972;2023-07-02T01:16:48;4.43;;;2.90;;
50779;SDS011;36748;37.428;-121.972;2023-07-02T01:19:18;4.65;;;2.90;;
50779;SDS011;36748;37.428;-121.972;2023-07-02T01:22:06;5.55;;;2.75;;
50779;SDS011;36748;37.428;-121.972;2023-07-02T01:24:33;5.00;;;2.80;;
50779;SDS011;36748;37.428;-121.972;2023-07-02T01:26:59;4.13;;;2.97;;
50779;SDS011;36748;37.428;-121.972;2023-07-02T01:29:28;4.07;;;2.67;;
50779;SDS011;36748;37.428;-121.972;2023-07-02T01:31:55;4.50;;;2.47;;
50779;SDS011;36748;37.428;-121.972;2023-07-02T01:34:21;5.40;;;2.90;;
50779;SDS011;36748;37.428;-121.972;2023-07-02T01:36:47;3.40;;;2.70;;
50779;SDS011;36748;37.428;-121.972;2023-07-02T01:39:14;3.47;;;2.55;;
50779;SDS011;36748;37.428;-121.972;2023-07-02T01:41:42;4.65;;;2.83;;
50779;SDS011;36748;37.428;-121.972;2023-07-02T01:44:10;5.72;;;2.50;;
50779;SDS011;36748;37.428;-121.972;2023-07-02T01:46:37;4.75;;;2.58;;
50779;SDS011;36748;37.428;-121.972;2023-07-02T01:49:03;4.32;;;2.60;;
50779;SDS011;36748;37.428;-121.972;2023-07-02T01:51:29;2.65;;;2.38;;
50779;SDS011;36748;37.428;-121.972;2023-07-02T01:53:55;4.00;;;2.83;;
50779;SDS011;36748;37.428;-121.972;2023-07-02T01:56:21;3.55;;;2.65;;
50779;SDS011;36748;37.428;-121.972;2023-07-02T01:58:48;4.82;;;2.58;;
50779;SDS011;36748;37.428;-121.972;2023-07-02T02:01:14;4.05;;;3.00;;
50779;SDS011;36748;37.428;-121.972;2023-07-02T02:03:40;3.85;;;2.92;;
50779;SDS011;36748;37.428;-121.972;2023-07-02T02:06:07;2.80;;;2.42;;
50779;SDS011;36748;37.428;-121.972;2023-07-02T02:08:34;4.53;;;2.70;;
50779;SDS011;36748;37.428;-121.972;2023-07-02T02:11:00;4.60;;;2.88;;
50779;SDS011;36748;37.428;-121.972;2023-07-02T02:13:26;3.25;;;2.55;;
50779;SDS011;36748;37.428;-121.972;2023-07-02T02:15:53;4.30;;;2.65;;
50779;SDS011;36748;37.428;-121.972;2023-07-02T02:18:20;3.85;;;3.05;;
50779;SDS011;36748;37.428;-121.972;2023-07-02T02:20:46;3.67;;;2.50;;
50779;SDS011;36748;37.428;-121.972;2023-07-02T02:23:12;5.78;;;3.10;;
50779;SDS011;36748;37.428;-121.972;2023-07-02T02:25:38;4.70;;;3.05;;
50779;SDS011;36748;37.428;-121.972;2023-07-02T02:28:05;4.80;;;2.60;;
50779;SDS011;36748;37.428;-121.972;2023-07-02T02:30:31;4.53;;;2.92;;
50779;SDS011;36748;37.428;-121.972;2023-07-02T02:32:57;6.25;;;3.08;;
50779;SDS011;36748;37.428;-121.972;2023-07-02T02:35:23;4.78;;;2.65;;
50779;SDS011;36748;37.428;-121.972;2023-07-02T02:37:49;4.07;;;2.72;;
50779;SDS011;36748;37.428;-121.972;2023-07-02T02:40:16;4.72;;;2.80;;
50779;SDS011;36748;37.428;-121.972;2023-07-02T02:42:45;5.20;;;3.00;;
50779;SDS011;36748;37.428;-121.972;2023-07-02T02:45:11;4.28;;;2.70;;
50779;SDS011;36748;37.428;-121.972;2023-07-02T02:47:37;3.10;;;2.47;;
50779;SDS011;36748;37.428;-121.972;2023-07-02T02:50:05;3.47;;;2.67;;
50779;SDS011;36748;37.428;-121.972;2023-07-02T02:52:31;3.80;;;2.72;;
50779;SDS011;36748;37.428;-121.972;2023-07-02T02:54:58;4.45;;;2.80;;
50779;SDS011;36748;37.428;-121.972;2023-07-02T02:57:24;4.38;;;3.03;;
50779;SDS011;36748;37.428;-121.972;2023-07-02T02:59:50;3.42;;;2.65;;
50779;SDS011;36748;37.428;-121.972;2023-07-02T03:02:16;3.70;;;2.70;;
50779;SDS011;36748;37.428;-121.972;2023-07-02T03:04:42;4.22;;;2.70;;
50779;SDS011;36748;37.428;-121.972;2023-07-02T03:07:10;3.75;;;2.50;;
50779;SDS011;36748;37.428;-121.972;2023-07-02T03:09:36;4.32;;;2.45;;
50779;SDS011;36748;37.428;-121.972;2023-07-02T03:12:02;4.43;;;2.78;;
50779;SDS011;36748;37.428;-121.972;2023-07-02T03:14:29;5.03;;;2.85;;
50779;SDS011;36748;37.428;-121.972;2023-07-02T03:16:55;5.85;;;2.85;;
50779;SDS011;36748;37.428;-121.972;2023-07-02T03:19:21;4.28;;;2.42;;
50779;SDS011;36748;37.428;-121.972;2023-07-02T03:21:47;4.30;;;2.40;;
50779;SDS011;36748;37.428;-121.972;2023-07-02T03:24:14;3.95;;;2.78;;
50779;SDS011;36748;37.428;-121.972;2023-07-02T03:26:41;3.92;;;2.72;;
50779;SDS011;36748;37.428;-121.972;2023-07-02T03:29:08;4.03;;;2.70;;
50779;SDS011;36748;37.428;-121.972;2023-07-02T03:31:34;3.55;;;2.70;;
50779;SDS011;36748;37.428;-121.972;2023-07-02T03:34:05;3.88;;;3.00;;
50779;SDS011;36748;37.428;-121.972;2023-07-02T03:36:33;4.05;;;2.67;;
50779;SDS011;36748;37.428;-121.972;2023-07-02T03:39:01;6.15;;;2.88;;
50779;SDS011;36748;37.428;-121.972;2023-07-02T03:41:27;2.80;;;2.35;;
50779;SDS011;36748;37.428;-121.972;2023-07-02T03:43:54;4.82;;;2.72;;
50779;SDS011;36748;37.428;-121.972;2023-07-02T03:46:20;3.97;;;2.70;;
50779;SDS011;36748;37.428;-121.972;2023-07-02T03:48:46;4.32;;;2.92;;
50779;SDS011;36748;37.428;-121.972;2023-07-02T03:51:12;4.35;;;2.78;;
50779;SDS011;36748;37.428;-121.972;2023-07-02T03:53:40;3.47;;;2.40;;
50779;SDS011;36748;37.428;-121.972;2023-07-02T03:56:09;3.58;;;2.60;;
50779;SDS011;36748;37.428;-121.972;2023-07-02T03:58:35;5.05;;;2.70;;
50779;SDS011;36748;37.428;-121.972;2023-07-02T04:01:01;5.05;;;3.00;;
50779;SDS011;36748;37.428;-121.972;2023-07-02T04:03:27;3.25;;;2.50;;
50779;SDS011;36748;37.428;-121.972;2023-07-02T04:05:54;3.97;;;2.65;;
50779;SDS011;36748;37.428;-121.972;2023-07-02T04:08:21;4.53;;;2.70;;
50779;SDS011;36748;37.428;-121.972;2023-07-02T04:10:47;4.82;;;2.70;;
50779;SDS011;36748;37.428;-121.972;2023-07-02T04:13:13;3.60;;;2.53;;
50779;SDS011;36748;37.428;-121.972;2023-07-02T04:15:39;3.67;;;2.60;;
50779;SDS011;36748;37.428;-121.972;2023-07-02T04:18:06;4.85;;;2.58;;
50779;SDS011;36748;37.428;-121.972;2023-07-02T04:20:32;3.58;;;2.67;;
50779;SDS011;36748;37.428;-121.972;2023-07-02T04:22:58;4.20;;;2.55;;
50779;SDS011;36748;37.428;-121.972;2023-07-02T04:25:24;2.75;;;2.30;;
50779;SDS011;36748;37.428;-121.972;2023-07-02T04:27:50;3.08;;;2.40;;
50779;SDS011;36748;37.428;-121.972;2023-07-02T04:30:21;5.28;;;2.40;;
50779;SDS011;36748;37.428;-121.972;2023-07-02T04:32:48;3.17;;;2.35;;
50779;SDS011;36748;37.428;-121.972;2023-07-02T04:35:14;6.20;;;3.10;;
50779;SDS011;36748;37.428;-121.972;2023-07-02T04:37:40;4.15;;;2.20;;
50779;SDS011;36748;37.428;-121.972;2023-07-02T04:40:06;3.50;;;2.50;;
50779;SDS011;36748;37.428;-121.972;2023-07-02T04:42:36;3.22;;;2.30;;
50779;SDS011;36748;37.428;-121.972;2023-07-02T04:45:06;4.00;;;2.53;;
50779;SDS011;36748;37.428;-121.972;2023-07-02T04:47:34;3.83;;;2.60;;
50779;SDS011;36748;37.428;-121.972;2023-07-02T04:50:00;3.53;;;2.60;;
50779;SDS011;36748;37.428;-121.972;2023-07-02T04:52:26;4.47;;;2.70;;
50779;SDS011;36748;37.428;-121.972;2023-07-02T04:54:53;3.20;;;2.63;;
50779;SDS011;36748;37.428;-121.972;2023-07-02T04:57:21;4.30;;;2.75;;
50779;SDS011;36748;37.428;-121.972;2023-07-02T04:59:47;3.38;;;2.70;;
50779;SDS011;36748;37.428;-121.972;2023-07-02T05:02:13;4.30;;;2.60;;
50779;SDS011;36748;37.428;-121.972;2023-07-02T05:04:59;4.43;;;2.80;;
50779;SDS011;36748;37.428;-121.972;2023-07-02T05:07:26;5.18;;;2.80;;
50779;SDS011;36748;37.428;-121.972;2023-07-02T05:09:52;5.15;;;2.75;;
50779;SDS011;36748;37.428;-121.972;2023-07-02T05:12:18;4.32;;;2.75;;
50779;SDS011;36748;37.428;-121.972;2023-07-02T05:14:45;3.47;;;2.42;;
50779;SDS011;36748;37.428;-121.972;2023-07-02T05:17:11;4.15;;;2.78;;
50779;SDS011;36748;37.428;-121.972;2023-07-02T05:19:40;3.50;;;2.53;;
50779;SDS011;36748;37.428;-121.972;2023-07-02T05:22:06;4.97;;;2.83;;
50779;SDS011;36748;37.428;-121.972;2023-07-02T05:24:33;5.03;;;2.33;;
50779;SDS011;36748;37.428;-121.972;2023-07-02T05:26:59;4.63;;;2.20;;
50779;SDS011;36748;37.428;-121.972;2023-07-02T05:29:25;3.88;;;2.40;;
50779;SDS011;36748;37.428;-121.972;2023-07-02T05:31:52;4.45;;;2.70;;
50779;SDS011;36748;37.428;-121.972;2023-07-02T05:34:18;4.18;;;2.60;;
50779;SDS011;36748;37.428;-121.972;2023-07-02T05:36:44;3.78;;;2.35;;
50779;SDS011;36748;37.428;-121.972;2023-07-02T05:39:10;4.07;;;2.65;;
50779;SDS011;36748;37.428;-121.972;2023-07-02T05:41:36;4.03;;;2.50;;
50779;SDS011;36748;37.428;-121.972;2023-07-02T05:44:03;3.60;;;2.58;;
50779;SDS011;36748;37.428;-121.972;2023-07-02T05:46:29;4.38;;;2.50;;
50779;SDS011;36748;37.428;-121.972;2023-07-02T05:48:55;3.65;;;2.47;;
50779;SDS011;36748;37.428;-121.972;2023-07-02T05:51:25;4.63;;;2.65;;
50779;SDS011;36748;37.428;-121.972;2023-07-02T05:53:51;3.40;;;2.55;;
50779;SDS011;36748;37.428;-121.972;2023-07-02T05:56:18;2.55;;;2.15;;
50779;SDS011;36748;37.428;-121.972;2023-07-02T05:58:45;3.22;;;2.42;;
50779;SDS011;36748;37.428;-121.972;2023-07-02T06:01:11;3.53;;;2.50;;
50779;SDS011;36748;37.428;-121.972;2023-07-02T06:03:37;3.95;;;2.45;;
50779;SDS011;36748;37.428;-121.972;2023-07-02T06:06:03;3.20;;;2.60;;
50779;SDS011;36748;37.428;-121.972;2023-07-02T06:08:30;3.25;;;2.60;;
50779;SDS011;36748;37.428;-121.972;2023-07-02T06:10:56;4.20;;;2.65;;
50779;SDS011;36748;37.428;-121.972;2023-07-02T06:13:22;4.88;;;2.75;;
50779;SDS011;36748;37.428;-121.972;2023-07-02T06:15:48;4.60;;;2.50;;
50779;SDS011;36748;37.428;-121.972;2023-07-02T06:18:15;3.78;;;2.40;;
50779;SDS011;36748;37.428;-121.972;2023-07-02T06:20:43;3.50;;;2.40;;
50779;SDS011;36748;37.428;-121.972;2023-07-02T06:23:09;5.53;;;2.83;;
50779;SDS011;36748;37.428;-121.972;2023-07-02T06:25:35;4.05;;;2.78;;
50779;SDS011;36748;37.428;-121.972;2023-07-02T06:28:04;10.25;;;2.78;;
50779;SDS011;36748;37.428;-121.972;2023-07-02T06:30:30;5.40;;;3.10;;
50779;SDS011;36748;37.428;-121.972;2023-07-02T06:32:56;6.07;;;2.75;;
50779;SDS011;36748;37.428;-121.972;2023-07-02T06:35:22;4.15;;;2.72;;
50779;SDS011;36748;37.428;-121.972;2023-07-02T06:37:49;4.32;;;3.05;;
50779;SDS011;36748;37.428;-121.972;2023-07-02T06:40:15;5.28;;;2.90;;
50779;SDS011;36748;37.428;-121.972;2023-07-02T06:42:41;3.03;;;2.30;;
50779;SDS011;36748;37.428;-121.972;2023-07-02T06:45:07;3.92;;;2.60;;
50779;SDS011;36748;37.428;-121.972;2023-07-02T06:47:34;4.63;;;2.83;;
50779;SDS011;36748;37.428;-121.972;2023-07-02T06:50:00;4.70;;;2.75;;
50779;SDS011;36748;37.428;-121.972;2023-07-02T06:52:26;4.07;;;2.80;;
50779;SDS011;36748;37.428;-121.972;2023-07-02T06:54:52;4.65;;;2.88;;
50779;SDS011;36748;37.428;-121.972;2023-07-02T06:57:18;4.25;;;2.70;;
50779;SDS011;36748;37.428;-121.972;2023-07-02T06:59:45;3.28;;;2.30;;
50779;SDS011;36748;37.428;-121.972;2023-07-02T07:02:11;4.30;;;2.65;;
50779;SDS011;36748;37.428;-121.972;2023-07-02T07:04:37;4.25;;;2.70;;
50779;SDS011;36748;37.428;-121.972;2023-07-02T07:07:04;4.68;;;2.75;;
50779;SDS011;36748;37.428;-121.972;2023-07-02T07:09:30;4.05;;;2.45;;
50779;SDS011;36748;37.428;-121.972;2023-07-02T07:11:56;4.30;;;2.80;;
50779;SDS011;36748;37.428;-121.972;2023-07-02T07:14:22;4.32;;;2.55;;
50779;SDS011;36748;37.428;-121.972;2023-07-02T07:16:49;4.40;;;2.60;;
50779;SDS011;36748;37.428;-121.972;2023-07-02T07:19:16;4.22;;;2.58;;
50779;SDS011;36748;37.428;-121.972;2023-07-02T07:21:42;3.75;;;2.88;;
50779;SDS011;36748;37.428;-121.972;2023-07-02T07:24:09;4.35;;;2.80;;
50779;SDS011;36748;37.428;-121.972;2023-07-02T07:26:35;3.08;;;2.22;;
50779;SDS011;36748;37.428;-121.972;2023-07-02T07:29:03;3.42;;;2.50;;
50779;SDS011;36748;37.428;-121.972;2023-07-02T07:31:33;3.80;;;2.65;;
50779;SDS011;36748;37.428;-121.972;2023-07-02T07:33:59;3.65;;;2.70;;
50779;SDS011;36748;37.428;-121.972;2023-07-02T07:36:25;4.72;;;2.90;;
50779;SDS011;36748;37.428;-121.972;2023-07-02T07:38:51;4.55;;;2.83;;
50779;SDS011;36748;37.428;-121.972;2023-07-02T07:41:18;5.10;;;3.15;;
50779;SDS011;36748;37.428;-121.972;2023-07-02T07:43:44;3.85;;;2.50;;
50779;SDS011;36748;37.428;-121.972;2023-07-02T07:46:13;4.85;;;2.95;;
50779;SDS011;36748;37.428;-121.972;2023-07-02T07:48:40;4.22;;;2.45;;
50779;SDS011;36748;37.428;-121.972;2023-07-02T07:51:06;3.40;;;2.60;;
50779;SDS011;36748;37.428;-121.972;2023-07-02T07:53:32;4.10;;;2.88;;
50779;SDS011;36748;37.428;-121.972;2023-07-02T07:55:58;3.25;;;2.47;;
50779;SDS011;36748;37.428;-121.972;2023-07-02T07:58:24;3.85;;;2.63;;
50779;SDS011;36748;37.428;-121.972;2023-07-02T08:00:51;3.30;;;2.35;;
50779;SDS011;36748;37.428;-121.972;2023-07-02T08:03:17;3.65;;;2.40;;
50779;SDS011;36748;37.428;-121.972;2023-07-02T08:05:43;3.22;;;2.47;;
50779;SDS011;36748;37.428;-121.972;2023-07-02T08:08:09;3.28;;;2.33;;
50779;SDS011;36748;37.428;-121.972;2023-07-02T08:10:35;4.88;;;2.63;;
50779;SDS011;36748;37.428;-121.972;2023-07-02T08:13:02;4.32;;;2.60;;
50779;SDS011;36748;37.428;-121.972;2023-07-02T08:15:28;2.80;;;2.50;;
50779;SDS011;36748;37.428;-121.972;2023-07-02T08:17:54;5.20;;;2.90;;
50779;SDS011;36748;37.428;-121.972;2023-07-02T08:20:22;4.20;;;2.80;;
50779;SDS011;36748;37.428;-121.972;2023-07-02T08:22:49;4.82;;;2.50;;
50779;SDS011;36748;37.428;-121.972;2023-07-02T08:25:17;2.85;;;2.28;;
50779;SDS011;36748;37.428;-121.972;2023-07-02T08:27:43;4.88;;;2.90;;
50779;SDS011;36748;37.428;-121.972;2023-07-02T08:30:10;4.00;;;2.65;;
50779;SDS011;36748;37.428;-121.972;2023-07-02T08:32:36;3.60;;;2.40;;
50779;SDS011;36748;37.428;-121.972;2023-07-02T08:35:02;3.33;;;2.40;;
50779;SDS011;36748;37.428;-121.972;2023-07-02T08:37:29;2.95;;;2.40;;
50779;SDS011;36748;37.428;-121.972;2023-07-02T08:39:55;3.10;;;2.40;;
50779;SDS011;36748;37.428;-121.972;2023-07-02T08:42:21;5.05;;;2.60;;
50779;SDS011;36748;37.428;-121.972;2023-07-02T08:44:47;4.57;;;2.33;;
50779;SDS011;36748;37.428;-121.972;2023-07-02T08:47:18;3.88;;;2.33;;
50779;SDS011;36748;37.428;-121.972;2023-07-02T08:49:45;3.47;;;2.50;;
50779;SDS011;36748;37.428;-121.972;2023-07-02T08:52:13;3.72;;;2.15;;
50779;SDS011;36748;37.428;-121.972;2023-07-02T08:54:40;3.28;;;2.53;;
50779;SDS011;36748;37.428;-121.972;2023-07-02T08:57:08;3.40;;;2.40;;
50779;SDS011;36748;37.428;-121.972;2023-07-02T08:59:38;5.07;;;2.60;;
50779;SDS011;36748;37.428;-121.972;2023-07-02T09:02:04;3.03;;;2.40;;
50779;SDS011;36748;37.428;-121.972;2023-07-02T09:04:30;3.08;;;2.30;;
50779;SDS011;36748;37.428;-121.972;2023-07-02T09:07:03;3.55;;;2.47;;
50779;SDS011;36748;37.428;-121.972;2023-07-02T09:09:30;4.35;;;2.55;;
50779;SDS011;36748;37.428;-121.972;2023-07-02T09:11:57;3.67;;;2.42;;
50779;SDS011;36748;37.428;-121.972;2023-07-02T09:14:24;2.63;;;2.20;;
50779;SDS011;36748;37.428;-121.972;2023-07-02T09:17:00;3.60;;;2.55;;
50779;SDS011;36748;37.428;-121.972;2023-07-02T09:19:36;4.63;;;2.50;;
50779;SDS011;36748;37.428;-121.972;2023-07-02T09:22:13;3.35;;;2.40;;
50779;SDS011;36748;37.428;-121.972;2023-07-02T09:24:41;4.30;;;2.45;;
50779;SDS011;36748;37.428;-121.972;2023-07-02T09:27:07;2.83;;;2.30;;
50779;SDS011;36748;37.428;-121.972;2023-07-02T09:29:33;3.65;;;2.63;;
50779;SDS011;36748;37.428;-121.972;2023-07-02T09:32:00;3.45;;;2.47;;
50779;SDS011;36748;37.428;-121.972;2023-07-02T09:36:57;2.38;;;2.15;;
50779;SDS011;36748;37.428;-121.972;2023-07-02T09:39:28;2.65;;;2.17;;
50779;SDS011;36748;37.428;-121.972;2023-07-02T09:41:58;4.03;;;2.50;;
50779;SDS011;36748;37.428;-121.972;2023-07-02T09:44:28;4.10;;;2.50;;
50779;SDS011;36748;37.428;-121.972;2023-07-02T09:47:05;3.63;;;2.55;;
50779;SDS011;36748;37.428;-121.972;2023-07-02T09:49:40;3.78;;;2.60;;
50779;SDS011;36748;37.428;-121.972;2023-07-02T09:52:08;4.13;;;3.03;;
50779;SDS011;36748;37.428;-121.972;2023-07-02T09:54:36;3.33;;;2.38;;
50779;SDS011;36748;37.428;-121.972;2023-07-02T09:57:03;2.60;;;2.15;;
50779;SDS011;36748;37.428;-121.972;2023-07-02T09:59:31;4.38;;;2.85;;
50779;SDS011;36748;37.428;-121.972;2023-07-02T10:01:57;3.50;;;2.25;;
50779;SDS011;36748;37.428;-121.972;2023-07-02T10:04:23;2.78;;;2.00;;
50779;SDS011;36748;37.428;-121.972;2023-07-02T10:06:51;3.17;;;2.38;;
50779;SDS011;36748;37.428;-121.972;2023-07-02T10:09:18;3.80;;;2.50;;
50779;SDS011;36748;37.428;-121.972;2023-07-02T10:11:45;3.70;;;2.30;;
50779;SDS011;36748;37.428;-121.972;2023-07-02T10:14:11;3.00;;;1.92;;
50779;SDS011;36748;37.428;-121.972;2023-07-02T10:16:50;2.90;;;2.10;;
50779;SDS011;36748;37.428;-121.972;2023-07-02T10:19:20;2.95;;;2.28;;
50779;SDS011;36748;37.428;-121.972;2023-07-02T10:21:47;3.20;;;2.03;;
50779;SDS011;36748;37.428;-121.972;2023-07-02T10:24:27;2.58;;;2.10;;
50779;SDS011;36748;37.428;-121.972;2023-07-02T10:27:00;3.85;;;2.60;;
50779;SDS011;36748;37.428;-121.972;2023-07-02T10:29:27;2.42;;;2.17;;
50779;SDS011;36748;37.428;-121.972;2023-07-02T10:31:55;3.72;;;2.20;;
50779;SDS011;36748;37.428;-121.972;2023-07-02T10:34:31;3.25;;;2.05;;
50779;SDS011;36748;37.428;-121.972;2023-07-02T10:36:59;3.03;;;2.10;;
50779;SDS011;36748;37.428;-121.972;2023-07-02T10:39:26;2.70;;;2.17;;
50779;SDS011;36748;37.428;-121.972;2023-07-02T10:42:04;3.28;;;2.38;;
50779;SDS011;36748;37.428;-121.972;2023-07-02T10:44:31;4.57;;;2.05;;
50779;SDS011;36748;37.428;-121.972;2023-07-02T10:46:58;3.30;;;2.50;;
50779;SDS011;36748;37.428;-121.972;2023-07-02T10:49:33;3.47;;;2.47;;
50779;SDS011;36748;37.428;-121.972;2023-07-02T10:51:59;2.58;;;2.00;;
50779;SDS011;36748;37.428;-121.972;2023-07-02T10:54:38;2.42;;;2.20;;
50779;SDS011;36748;37.428;-121.972;2023-07-02T10:57:08;4.10;;;2.72;;
50779;SDS011;36748;37.428;-121.972;2023-07-02T10:59:47;4.50;;;2.45;;
50779;SDS011;36748;37.428;-121.972;2023-07-02T11:02:14;3.22;;;2.30;;
50779;SDS011;36748;37.428;-121.972;2023-07-02T11:04:40;3.28;;;2.38;;
50779;SDS011;36748;37.428;-121.972;2023-07-02T11:07:07;3.88;;;2.17;;
50779;SDS011;36748;37.428;-121.972;2023-07-02T11:09:35;2.92;;;2.30;;
50779;SDS011;36748;37.428;-121.972;2023-07-02T11:12:01;3.10;;;2.58;;
50779;SDS011;36748;37.428;-121.972;2023-07-02T11:14:28;2.83;;;2.20;;
50779;SDS011;36748;37.428;-121.972;2023-07-02T11:16:54;3.55;;;2.35;;
50779;SDS011;36748;37.428;-121.972;2023-07-02T11:19:21;3.08;;;2.30;;
50779;SDS011;36748;37.428;-121.972;2023-07-02T11:21:54;2.45;;;2.17;;
50779;SDS011;36748;37.428;-121.972;2023-07-02T11:24:31;2.67;;;2.30;;
50779;SDS011;36748;37.428;-121.972;2023-07-02T11:27:02;3.08;;;2.30;;
50779;SDS011;36748;37.428;-121.972;2023-07-02T11:29:32;3.00;;;2.00;;
50779;SDS011;36748;37.428;-121.972;2023-07-02T11:32:05;2.58;;;2.05;;
50779;SDS011;36748;37.428;-121.972;2023-07-02T11:34:35;2.25;;;2.05;;
50779;SDS011;36748;37.428;-121.972;2023-07-02T11:37:02;3.25;;;2.50;;
50779;SDS011;36748;37.428;-121.972;2023-07-02T11:39:29;3.47;;;2.15;;
50779;SDS011;36748;37.428;-121.972;2023-07-02T11:41:56;3.83;;;2.42;;
50779;SDS011;36748;37.428;-121.972;2023-07-02T11:44:22;2.78;;;1.77;;
50779;SDS011;36748;37.428;-121.972;2023-07-02T11:46:49;2.95;;;2.20;;
50779;SDS011;36748;37.428;-121.972;2023-07-02T11:49:15;2.70;;;2.05;;
50779;SDS011;36748;37.428;-121.972;2023-07-02T11:51:42;2.60;;;2.10;;
50779;SDS011;36748;37.428;-121.972;2023-07-02T11:54:15;2.55;;;2.10;;
50779;SDS011;36748;37.428;-121.972;2023-07-02T11:56:43;3.17;;;2.13;;
50779;SDS011;36748;37.428;-121.972;2023-07-02T11:59:10;2.58;;;2.08;;
50779;SDS011;36748;37.428;-121.972;2023-07-02T12:01:36;3.30;;;2.17;;
50779;SDS011;36748;37.428;-121.972;2023-07-02T12:04:03;2.30;;;1.77;;
50779;SDS011;36748;37.428;-121.972;2023-07-02T12:06:30;2.75;;;2.20;;
50779;SDS011;36748;37.428;-121.972;2023-07-02T12:08:57;3.00;;;2.30;;
50779;SDS011;36748;37.428;-121.972;2023-07-02T12:11:23;3.75;;;2.15;;
50779;SDS011;36748;37.428;-121.972;2023-07-02T12:13:49;2.45;;;1.88;;
50779;SDS011;36748;37.428;-121.972;2023-07-02T12:16:15;2.42;;;2.20;;
50779;SDS011;36748;37.428;-121.972;2023-07-02T12:18:41;2.78;;;2.47;;
50779;SDS011;36748;37.428;-121.972;2023-07-02T12:21:07;2.40;;;1.85;;
50779;SDS011;36748;37.428;-121.972;2023-07-02T12:23:34;3.13;;;2.10;;
50779;SDS011;36748;37.428;-121.972;2023-07-02T12:26:00;2.85;;;2.30;;
50779;SDS011;36748;37.428;-121.972;2023-07-02T12:28:27;2.83;;;2.20;;
50779;SDS011;36748;37.428;-121.972;2023-07-02T12:30:53;1.80;;;1.70;;
50779;SDS011;36748;37.428;-121.972;2023-07-02T12:33:19;2.58;;;2.00;;
50779;SDS011;36748;37.428;-121.972;2023-07-02T12:35:45;2.70;;;2.10;;
50779;SDS011;36748;37.428;-121.972;2023-07-02T12:38:11;2.00;;;1.80;;
50779;SDS011;36748;37.428;-121.972;2023-07-02T12:40:38;2.10;;;1.80;;
50779;SDS011;36748;37.428;-121.972;2023-07-02T12:43:04;2.67;;;1.90;;
50779;SDS011;36748;37.428;-121.972;2023-07-02T12:45:30;2.55;;;1.95;;
50779;SDS011;36748;37.428;-121.972;2023-07-02T12:47:56;3.95;;;1.92;;
50779;SDS011;36748;37.428;-121.972;2023-07-02T12:50:23;2.70;;;2.05;;
50779;SDS011;36748;37.428;-121.972;2023-07-02T12:52:49;2.70;;;2.03;;
50779;SDS011;36748;37.428;-121.972;2023-07-02T12:55:15;2.58;;;2.17;;
50779;SDS011;36748;37.428;-121.972;2023-07-02T12:57:41;2.72;;;1.75;;
50779;SDS011;36748;37.428;-121.972;2023-07-02T13:00:08;2.92;;;1.98;;
50779;SDS011;36748;37.428;-121.972;2023-07-02T13:02:34;2.33;;;2.00;;
50779;SDS011;36748;37.428;-121.972;2023-07-02T13:05:01;2.60;;;1.90;;
50779;SDS011;36748;37.428;-121.972;2023-07-02T13:07:27;2.03;;;1.83;;
50779;SDS011;36748;37.428;-121.972;2023-07-02T13:09:55;3.42;;;2.13;;
50779;SDS011;36748;37.428;-121.972;2023-07-02T13:12:21;2.92;;;2.33;;
50779;SDS011;36748;37.428;-121.972;2023-07-02T13:14:48;3.22;;;2.20;;
50779;SDS011;36748;37.428;-121.972;2023-07-02T13:17:14;2.97;;;2.10;;
50779;SDS011;36748;37.428;-121.972;2023-07-02T13:19:40;2.40;;;2.05;;
50779;SDS011;36748;37.428;-121.972;2023-07-02T13:22:06;2.53;;;2.00;;
50779;SDS011;36748;37.428;-121.972;2023-07-02T13:24:33;2.53;;;2.20;;
50779;SDS011;36748;37.428;-121.972;2023-07-02T13:27:01;2.88;;;1.92;;
50779;SDS011;36748;37.428;-121.972;2023-07-02T13:29:29;2.55;;;1.98;;
50779;SDS011;36748;37.428;-121.972;2023-07-02T13:31:55;2.08;;;1.88;;
50779;SDS011;36748;37.428;-121.972;2023-07-02T13:34:21;2.40;;;2.00;;
50779;SDS011;36748;37.428;-121.972;2023-07-02T13:36:48;2.58;;;2.00;;
50779;SDS011;36748;37.428;-121.972;2023-07-02T13:39:14;4.03;;;2.00;;
50779;SDS011;36748;37.428;-121.972;2023-07-02T13:41:40;2.00;;;1.80;;
50779;SDS011;36748;37.428;-121.972;2023-07-02T13:44:06;2.20;;;1.73;;
50779;SDS011;36748;37.428;-121.972;2023-07-02T13:46:32;2.17;;;1.90;;
50779;SDS011;36748;37.428;-121.972;2023-07-02T13:49:05;2.83;;;2.40;;
50779;SDS011;36748;37.428;-121.972;2023-07-02T13:51:32;2.67;;;2.00;;
50779;SDS011;36748;37.428;-121.972;2023-07-02T13:53:58;2.75;;;1.98;;
50779;SDS011;36748;37.428;-121.972;2023-07-02T13:56:24;4.05;;;2.10;;
50779;SDS011;36748;37.428;-121.972;2023-07-02T14:01:22;3.22;;;1.80;;
50779;SDS011;36748;37.428;-121.972;2023-07-02T14:03:49;2.60;;;1.83;;
50779;SDS011;36748;37.428;-121.972;2023-07-02T14:06:16;2.97;;;1.90;;
50779;SDS011;36748;37.428;-121.972;2023-07-02T14:08:42;2.05;;;1.60;;
50779;SDS011;36748;37.428;-121.972;2023-07-02T14:11:08;1.88;;;1.75;;
50779;SDS011;36748;37.428;-121.972;2023-07-02T14:13:35;3.97;;;2.47;;
50779;SDS011;36748;37.428;-121.972;2023-07-02T14:16:01;2.88;;;2.17;;